sensor_id;sensor_type;location;lat;lon;timestamp;P1;durP1;ratioP1;P2;durP2;ratioP2
33268;SDS011;19640;50.944;5.260;2023-02-10T00:01:02;32.90;;;20.63;;
33268;SDS011;19640;50.944;5.260;2023-02-10T00:03:48;38.58;;;21.88;;
33268;SDS011;19640;50.944;5.260;2023-02-10T00:06:15;42.47;;;22.73;;
33268;SDS011;19640;50.944;5.260;2023-02-10T00:08:42;41.45;;;23.38;;
33268;SDS011;19640;50.944;5.260;2023-02-10T00:11:11;41.90;;;23.60;;
33268;SDS011;19640;50.944;5.260;2023-02-10T00:13:37;40.15;;;22.50;;
33268;SDS011;19640;50.944;5.260;2023-02-10T00:16:04;42.20;;;23.42;;
33268;SDS011;19640;50.944;5.260;2023-02-10T00:18:32;38.75;;;23.05;;
33268;SDS011;19640;50.944;5.260;2023-02-10T00:21:07;41.92;;;23.40;;
33268;SDS011;19640;50.944;5.260;2023-02-10T00:23:37;40.15;;;21.88;;
33268;SDS011;19640;50.944;5.260;2023-02-10T00:26:04;41.90;;;23.65;;
33268;SDS011;19640;50.944;5.260;2023-02-10T00:28:31;49.53;;;26.73;;
33268;SDS011;19640;50.944;5.260;2023-02-10T00:30:58;49.45;;;25.90;;
33268;SDS011;19640;50.944;5.260;2023-02-10T00:33:24;48.53;;;26.02;;
33268;SDS011;19640;50.944;5.260;2023-02-10T00:35:50;40.75;;;22.70;;
33268;SDS011;19640;50.944;5.260;2023-02-10T00:38:16;43.83;;;23.60;;
33268;SDS011;19640;50.944;5.260;2023-02-10T00:40:42;41.70;;;23.08;;
33268;SDS011;19640;50.944;5.260;2023-02-10T00:43:08;38.90;;;22.67;;
33268;SDS011;19640;50.944;5.260;2023-02-10T00:45:33;47.17;;;23.20;;
33268;SDS011;19640;50.944;5.260;2023-02-10T00:47:59;33.97;;;21.40;;
33268;SDS011;19640;50.944;5.260;2023-02-10T00:50:25;43.92;;;22.60;;
33268;SDS011;19640;50.944;5.260;2023-02-10T00:52:50;43.78;;;24.05;;
33268;SDS011;19640;50.944;5.260;2023-02-10T00:55:16;41.15;;;23.80;;
33268;SDS011;19640;50.944;5.260;2023-02-10T00:57:41;41.72;;;22.80;;
33268;SDS011;19640;50.944;5.260;2023-02-10T01:00:07;37.58;;;21.50;;
33268;SDS011;19640;50.944;5.260;2023-02-10T01:02:33;35.17;;;19.75;;
33268;SDS011;19640;50.944;5.260;2023-02-10T01:04:59;34.75;;;21.25;;
33268;SDS011;19640;50.944;5.260;2023-02-10T01:07:25;37.38;;;22.42;;
33268;SDS011;19640;50.944;5.260;2023-02-10T01:09:50;39.25;;;21.58;;
33268;SDS011;19640;50.944;5.260;2023-02-10T01:12:16;43.28;;;23.98;;
33268;SDS011;19640;50.944;5.260;2023-02-10T01:14:41;53.78;;;25.42;;
33268;SDS011;19640;50.944;5.260;2023-02-10T01:17:07;43.63;;;24.55;;
33268;SDS011;19640;50.944;5.260;2023-02-10T01:19:33;40.47;;;24.08;;
33268;SDS011;19640;50.944;5.260;2023-02-10T01:21:58;39.40;;;24.02;;
33268;SDS011;19640;50.944;5.260;2023-02-10T01:24:24;46.85;;;24.85;;
33268;SDS011;19640;50.944;5.260;2023-02-10T01:26:50;44.45;;;23.80;;
33268;SDS011;19640;50.944;5.260;2023-02-10T01:29:15;43.97;;;23.17;;
33268;SDS011;19640;50.944;5.260;2023-02-10T01:31:41;42.65;;;22.90;;
33268;SDS011;19640;50.944;5.260;2023-02-10T01:34:06;44.08;;;25.60;;
33268;SDS011;19640;50.944;5.260;2023-02-10T01:36:32;48.80;;;25.45;;
33268;SDS011;19640;50.944;5.260;2023-02-10T01:38:58;51.28;;;27.25;;
33268;SDS011;19640;50.944;5.260;2023-02-10T01:41:23;48.40;;;24.67;;
33268;SDS011;19640;50.944;5.260;2023-02-10T01:43:53;50.38;;;26.20;;
33268;SDS011;19640;50.944;5.260;2023-02-10T01:46:24;49.50;;;26.40;;
33268;SDS011;19640;50.944;5.260;2023-02-10T01:48:51;46.70;;;26.48;;
33268;SDS011;19640;50.944;5.260;2023-02-10T01:51:18;50.20;;;26.10;;
33268;SDS011;19640;50.944;5.260;2023-02-10T01:53:46;55.92;;;27.95;;
33268;SDS011;19640;50.944;5.260;2023-02-10T01:56:12;56.83;;;27.42;;
33268;SDS011;19640;50.944;5.260;2023-02-10T01:58:40;51.42;;;26.80;;
33268;SDS011;19640;50.944;5.260;2023-02-10T02:01:06;48.65;;;26.88;;
33268;SDS011;19640;50.944;5.260;2023-02-10T02:03:32;52.33;;;26.55;;
33268;SDS011;19640;50.944;5.260;2023-02-10T02:05:59;49.75;;;26.17;;
33268;SDS011;19640;50.944;5.260;2023-02-10T02:08:25;51.45;;;26.45;;
33268;SDS011;19640;50.944;5.260;2023-02-10T02:16:19;45.30;;;25.60;;
33268;SDS011;19640;50.944;5.260;2023-02-10T02:24:22;44.75;;;25.85;;
33268;SDS011;19640;50.944;5.260;2023-02-10T02:27:22;43.60;;;24.13;;
33268;SDS011;19640;50.944;5.260;2023-02-10T02:33:17;44.80;;;26.08;;
33268;SDS011;19640;50.944;5.260;2023-02-10T02:35:54;49.90;;;27.40;;
33268;SDS011;19640;50.944;5.260;2023-02-10T02:38:42;39.85;;;24.20;;
33268;SDS011;19640;50.944;5.260;2023-02-10T02:41:08;43.58;;;24.13;;
33268;SDS011;19640;50.944;5.260;2023-02-10T02:43:34;48.45;;;24.40;;
33268;SDS011;19640;50.944;5.260;2023-02-10T02:46:09;43.17;;;24.90;;
33268;SDS011;19640;50.944;5.260;2023-02-10T02:48:47;42.63;;;24.73;;
33268;SDS011;19640;50.944;5.260;2023-02-10T02:51:36;48.75;;;23.85;;
33268;SDS011;19640;50.944;5.260;2023-02-10T02:54:12;49.80;;;23.95;;
33268;SDS011;19640;50.944;5.260;2023-02-10T02:56:45;38.78;;;23.23;;
33268;SDS011;19640;50.944;5.260;2023-02-10T03:02:04;41.88;;;23.40;;
33268;SDS011;19640;50.944;5.260;2023-02-10T03:04:36;45.38;;;23.13;;
33268;SDS011;19640;50.944;5.260;2023-02-10T03:07:03;47.17;;;24.88;;
33268;SDS011;19640;50.944;5.260;2023-02-10T03:09:29;47.30;;;26.13;;
33268;SDS011;19640;50.944;5.260;2023-02-10T03:11:55;54.92;;;27.08;;
33268;SDS011;19640;50.944;5.260;2023-02-10T03:14:21;50.88;;;26.25;;
33268;SDS011;19640;50.944;5.260;2023-02-10T03:16:46;57.55;;;28.15;;
33268;SDS011;19640;50.944;5.260;2023-02-10T03:19:12;54.92;;;28.88;;
33268;SDS011;19640;50.944;5.260;2023-02-10T03:21:38;60.88;;;29.40;;
33268;SDS011;19640;50.944;5.260;2023-02-10T03:24:03;60.75;;;29.10;;
33268;SDS011;19640;50.944;5.260;2023-02-10T03:26:29;66.35;;;29.25;;
33268;SDS011;19640;50.944;5.260;2023-02-10T03:28:55;58.85;;;30.60;;
33268;SDS011;19640;50.944;5.260;2023-02-10T03:31:22;56.42;;;28.88;;
33268;SDS011;19640;50.944;5.260;2023-02-10T03:33:48;60.83;;;28.70;;
33268;SDS011;19640;50.944;5.260;2023-02-10T03:36:14;57.90;;;27.17;;
33268;SDS011;19640;50.944;5.260;2023-02-10T03:38:39;52.30;;;26.42;;
33268;SDS011;19640;50.944;5.260;2023-02-10T03:41:05;47.17;;;25.70;;
33268;SDS011;19640;50.944;5.260;2023-02-10T03:43:31;47.40;;;26.20;;
33268;SDS011;19640;50.944;5.260;2023-02-10T03:46:00;53.70;;;27.58;;
33268;SDS011;19640;50.944;5.260;2023-02-10T03:48:27;55.67;;;27.95;;
33268;SDS011;19640;50.944;5.260;2023-02-10T03:50:56;49.17;;;27.67;;
33268;SDS011;19640;50.944;5.260;2023-02-10T03:53:23;47.00;;;25.90;;
33268;SDS011;19640;50.944;5.260;2023-02-10T03:55:49;53.25;;;25.90;;
33268;SDS011;19640;50.944;5.260;2023-02-10T03:58:14;48.15;;;25.65;;
33268;SDS011;19640;50.944;5.260;2023-02-10T04:00:40;49.13;;;25.67;;
33268;SDS011;19640;50.944;5.260;2023-02-10T04:03:06;47.67;;;25.35;;
33268;SDS011;19640;50.944;5.260;2023-02-10T04:05:31;53.28;;;25.75;;
33268;SDS011;19640;50.944;5.260;2023-02-10T04:07:57;51.70;;;25.67;;
33268;SDS011;19640;50.944;5.260;2023-02-10T04:10:23;44.70;;;25.55;;
33268;SDS011;19640;50.944;5.260;2023-02-10T04:12:48;45.20;;;23.48;;
33268;SDS011;19640;50.944;5.260;2023-02-10T04:15:14;48.80;;;25.67;;
33268;SDS011;19640;50.944;5.260;2023-02-10T04:17:40;46.22;;;23.95;;
33268;SDS011;19640;50.944;5.260;2023-02-10T04:20:06;48.97;;;24.30;;
33268;SDS011;19640;50.944;5.260;2023-02-10T04:22:32;51.63;;;25.60;;
33268;SDS011;19640;50.944;5.260;2023-02-10T04:24:58;44.22;;;23.52;;
33268;SDS011;19640;50.944;5.260;2023-02-10T04:27:24;42.33;;;22.35;;
33268;SDS011;19640;50.944;5.260;2023-02-10T04:29:49;34.20;;;20.02;;
33268;SDS011;19640;50.944;5.260;2023-02-10T04:32:15;37.97;;;21.23;;
33268;SDS011;19640;50.944;5.260;2023-02-10T04:34:41;44.00;;;23.38;;
33268;SDS011;19640;50.944;5.260;2023-02-10T04:37:06;42.00;;;22.52;;
33268;SDS011;19640;50.944;5.260;2023-02-10T04:39:32;50.20;;;25.33;;
33268;SDS011;19640;50.944;5.260;2023-02-10T04:41:58;54.30;;;24.55;;
33268;SDS011;19640;50.944;5.260;2023-02-10T04:44:23;43.55;;;21.50;;
33268;SDS011;19640;50.944;5.260;2023-02-10T04:46:49;43.63;;;22.50;;
33268;SDS011;19640;50.944;5.260;2023-02-10T04:49:16;40.63;;;21.90;;
33268;SDS011;19640;50.944;5.260;2023-02-10T04:51:41;53.08;;;25.92;;
33268;SDS011;19640;50.944;5.260;2023-02-10T04:54:07;43.17;;;22.83;;
33268;SDS011;19640;50.944;5.260;2023-02-10T04:56:33;41.50;;;22.38;;
33268;SDS011;19640;50.944;5.260;2023-02-10T04:58:59;48.03;;;24.05;;
33268;SDS011;19640;50.944;5.260;2023-02-10T05:01:24;55.08;;;25.60;;
33268;SDS011;19640;50.944;5.260;2023-02-10T05:03:50;46.13;;;22.98;;
33268;SDS011;19640;50.944;5.260;2023-02-10T05:06:16;49.45;;;22.67;;
33268;SDS011;19640;50.944;5.260;2023-02-10T05:08:42;44.53;;;22.25;;
33268;SDS011;19640;50.944;5.260;2023-02-10T05:11:08;41.00;;;22.80;;
33268;SDS011;19640;50.944;5.260;2023-02-10T05:13:35;41.72;;;23.13;;
33268;SDS011;19640;50.944;5.260;2023-02-10T05:16:01;49.67;;;25.38;;
33268;SDS011;19640;50.944;5.260;2023-02-10T05:18:29;46.38;;;23.83;;
33268;SDS011;19640;50.944;5.260;2023-02-10T05:20:58;47.00;;;24.77;;
33268;SDS011;19640;50.944;5.260;2023-02-10T05:23:24;52.05;;;24.83;;
33268;SDS011;19640;50.944;5.260;2023-02-10T05:25:50;44.50;;;21.88;;
33268;SDS011;19640;50.944;5.260;2023-02-10T05:28:16;49.85;;;24.33;;
33268;SDS011;19640;50.944;5.260;2023-02-10T05:30:42;45.70;;;22.73;;
33268;SDS011;19640;50.944;5.260;2023-02-10T05:33:07;38.22;;;21.52;;
33268;SDS011;19640;50.944;5.260;2023-02-10T05:35:33;38.85;;;21.35;;
33268;SDS011;19640;50.944;5.260;2023-02-10T05:37:59;41.55;;;21.55;;
33268;SDS011;19640;50.944;5.260;2023-02-10T05:40:27;48.30;;;24.00;;
33268;SDS011;19640;50.944;5.260;2023-02-10T05:42:53;50.78;;;23.90;;
33268;SDS011;19640;50.944;5.260;2023-02-10T05:45:19;50.92;;;23.35;;
33268;SDS011;19640;50.944;5.260;2023-02-10T05:47:45;47.08;;;23.23;;
33268;SDS011;19640;50.944;5.260;2023-02-10T05:50:11;36.78;;;20.20;;
33268;SDS011;19640;50.944;5.260;2023-02-10T05:52:36;50.80;;;23.50;;
33268;SDS011;19640;50.944;5.260;2023-02-10T05:55:02;41.30;;;22.63;;
33268;SDS011;19640;50.944;5.260;2023-02-10T05:57:28;61.28;;;25.70;;
33268;SDS011;19640;50.944;5.260;2023-02-10T05:59:54;46.17;;;24.15;;
33268;SDS011;19640;50.944;5.260;2023-02-10T06:02:20;45.45;;;23.67;;
33268;SDS011;19640;50.944;5.260;2023-02-10T06:04:45;53.72;;;25.08;;
33268;SDS011;19640;50.944;5.260;2023-02-10T06:07:11;57.33;;;26.30;;
33268;SDS011;19640;50.944;5.260;2023-02-10T06:09:36;46.38;;;23.80;;
33268;SDS011;19640;50.944;5.260;2023-02-10T06:12:04;41.72;;;22.42;;
33268;SDS011;19640;50.944;5.260;2023-02-10T06:14:30;45.40;;;23.15;;
33268;SDS011;19640;50.944;5.260;2023-02-10T06:16:56;53.85;;;24.25;;
33268;SDS011;19640;50.944;5.260;2023-02-10T06:19:22;54.70;;;26.33;;
33268;SDS011;19640;50.944;5.260;2023-02-10T06:21:48;53.72;;;25.70;;
33268;SDS011;19640;50.944;5.260;2023-02-10T06:24:13;57.10;;;25.08;;
33268;SDS011;19640;50.944;5.260;2023-02-10T06:26:39;58.08;;;28.02;;
33268;SDS011;19640;50.944;5.260;2023-02-10T06:29:05;60.20;;;27.60;;
33268;SDS011;19640;50.944;5.260;2023-02-10T06:31:31;55.75;;;27.45;;
33268;SDS011;19640;50.944;5.260;2023-02-10T06:33:57;53.03;;;26.65;;
33268;SDS011;19640;50.944;5.260;2023-02-10T06:36:23;57.05;;;28.73;;
33268;SDS011;19640;50.944;5.260;2023-02-10T06:38:48;52.38;;;26.35;;
33268;SDS011;19640;50.944;5.260;2023-02-10T06:41:14;66.45;;;28.52;;
33268;SDS011;19640;50.944;5.260;2023-02-10T06:43:40;56.72;;;27.20;;
33268;SDS011;19640;50.944;5.260;2023-02-10T06:46:06;59.15;;;28.70;;
33268;SDS011;19640;50.944;5.260;2023-02-10T06:48:32;62.70;;;28.48;;
33268;SDS011;19640;50.944;5.260;2023-02-10T06:50:58;49.88;;;24.55;;
33268;SDS011;19640;50.944;5.260;2023-02-10T06:53:23;61.75;;;26.15;;
33268;SDS011;19640;50.944;5.260;2023-02-10T06:55:49;49.08;;;22.77;;
33268;SDS011;19640;50.944;5.260;2023-02-10T06:58:15;53.60;;;24.88;;
33268;SDS011;19640;50.944;5.260;2023-02-10T07:00:41;57.30;;;24.45;;
33268;SDS011;19640;50.944;5.260;2023-02-10T07:03:07;51.35;;;24.17;;
33268;SDS011;19640;50.944;5.260;2023-02-10T07:05:33;47.65;;;23.80;;
33268;SDS011;19640;50.944;5.260;2023-02-10T07:08:01;50.58;;;24.48;;
33268;SDS011;19640;50.944;5.260;2023-02-10T07:10:29;46.65;;;23.15;;
33268;SDS011;19640;50.944;5.260;2023-02-10T07:12:55;46.88;;;24.08;;
33268;SDS011;19640;50.944;5.260;2023-02-10T07:15:21;43.72;;;21.83;;
33268;SDS011;19640;50.944;5.260;2023-02-10T07:17:48;51.17;;;24.73;;
33268;SDS011;19640;50.944;5.260;2023-02-10T07:20:15;41.03;;;21.15;;
33268;SDS011;19640;50.944;5.260;2023-02-10T07:22:42;44.67;;;21.58;;
33268;SDS011;19640;50.944;5.260;2023-02-10T07:25:08;41.28;;;21.33;;
33268;SDS011;19640;50.944;5.260;2023-02-10T07:27:34;56.20;;;22.50;;
33268;SDS011;19640;50.944;5.260;2023-02-10T07:29:59;45.67;;;22.85;;
33268;SDS011;19640;50.944;5.260;2023-02-10T07:32:25;55.75;;;25.38;;
33268;SDS011;19640;50.944;5.260;2023-02-10T07:34:51;55.50;;;24.05;;
33268;SDS011;19640;50.944;5.260;2023-02-10T07:37:17;50.53;;;23.83;;
33268;SDS011;19640;50.944;5.260;2023-02-10T07:39:43;60.47;;;24.95;;
33268;SDS011;19640;50.944;5.260;2023-02-10T07:42:09;58.45;;;26.38;;
33268;SDS011;19640;50.944;5.260;2023-02-10T07:44:34;56.35;;;25.65;;
33268;SDS011;19640;50.944;5.260;2023-02-10T07:47:00;58.53;;;26.30;;
33268;SDS011;19640;50.944;5.260;2023-02-10T07:49:26;56.00;;;26.75;;
33268;SDS011;19640;50.944;5.260;2023-02-10T07:51:53;55.58;;;26.58;;
33268;SDS011;19640;50.944;5.260;2023-02-10T07:54:20;64.22;;;27.70;;
33268;SDS011;19640;50.944;5.260;2023-02-10T07:56:46;58.83;;;27.92;;
33268;SDS011;19640;50.944;5.260;2023-02-10T07:59:12;58.67;;;27.85;;
33268;SDS011;19640;50.944;5.260;2023-02-10T08:01:39;64.78;;;29.20;;
33268;SDS011;19640;50.944;5.260;2023-02-10T08:04:08;50.00;;;26.17;;
33268;SDS011;19640;50.944;5.260;2023-02-10T08:06:35;64.88;;;27.55;;
33268;SDS011;19640;50.944;5.260;2023-02-10T08:09:01;56.80;;;28.52;;
33268;SDS011;19640;50.944;5.260;2023-02-10T08:11:27;64.63;;;28.58;;
33268;SDS011;19640;50.944;5.260;2023-02-10T08:13:52;66.93;;;30.02;;
33268;SDS011;19640;50.944;5.260;2023-02-10T08:16:18;69.38;;;30.10;;
33268;SDS011;19640;50.944;5.260;2023-02-10T08:18:43;68.60;;;30.50;;
33268;SDS011;19640;50.944;5.260;2023-02-10T08:21:09;71.95;;;32.08;;
33268;SDS011;19640;50.944;5.260;2023-02-10T08:23:35;59.83;;;27.98;;
33268;SDS011;19640;50.944;5.260;2023-02-10T08:26:02;68.55;;;30.35;;
33268;SDS011;19640;50.944;5.260;2023-02-10T08:28:33;65.47;;;28.80;;
33268;SDS011;19640;50.944;5.260;2023-02-10T08:30:59;67.75;;;31.60;;
33268;SDS011;19640;50.944;5.260;2023-02-10T08:33:26;69.35;;;33.53;;
33268;SDS011;19640;50.944;5.260;2023-02-10T08:35:52;64.60;;;30.52;;
33268;SDS011;19640;50.944;5.260;2023-02-10T08:38:17;62.30;;;31.25;;
33268;SDS011;19640;50.944;5.260;2023-02-10T08:40:43;65.03;;;31.38;;
33268;SDS011;19640;50.944;5.260;2023-02-10T08:43:09;64.03;;;28.33;;
33268;SDS011;19640;50.944;5.260;2023-02-10T08:45:36;58.75;;;28.88;;
33268;SDS011;19640;50.944;5.260;2023-02-10T08:48:03;61.67;;;30.42;;
33268;SDS011;19640;50.944;5.260;2023-02-10T08:50:28;70.65;;;30.88;;
33268;SDS011;19640;50.944;5.260;2023-02-10T08:52:54;72.70;;;31.95;;
33268;SDS011;19640;50.944;5.260;2023-02-10T08:55:19;68.32;;;33.05;;
33268;SDS011;19640;50.944;5.260;2023-02-10T08:57:45;69.63;;;31.85;;
33268;SDS011;19640;50.944;5.260;2023-02-10T09:00:11;66.05;;;31.10;;
33268;SDS011;19640;50.944;5.260;2023-02-10T09:02:37;72.47;;;33.00;;
33268;SDS011;19640;50.944;5.260;2023-02-10T09:05:02;70.68;;;32.42;;
33268;SDS011;19640;50.944;5.260;2023-02-10T09:07:28;76.70;;;34.15;;
33268;SDS011;19640;50.944;5.260;2023-02-10T09:09:54;77.03;;;35.88;;
33268;SDS011;19640;50.944;5.260;2023-02-10T09:12:20;81.78;;;36.17;;
33268;SDS011;19640;50.944;5.260;2023-02-10T09:14:45;75.38;;;36.03;;
33268;SDS011;19640;50.944;5.260;2023-02-10T09:17:11;81.95;;;37.92;;
33268;SDS011;19640;50.944;5.260;2023-02-10T09:19:37;89.20;;;37.58;;
33268;SDS011;19640;50.944;5.260;2023-02-10T09:22:03;83.43;;;37.28;;
33268;SDS011;19640;50.944;5.260;2023-02-10T09:24:30;68.95;;;35.78;;
33268;SDS011;19640;50.944;5.260;2023-02-10T09:26:56;75.03;;;34.13;;
33268;SDS011;19640;50.944;5.260;2023-02-10T09:29:22;79.50;;;37.78;;
33268;SDS011;19640;50.944;5.260;2023-02-10T09:31:48;80.63;;;36.75;;
33268;SDS011;19640;50.944;5.260;2023-02-10T09:34:13;77.15;;;36.25;;
33268;SDS011;19640;50.944;5.260;2023-02-10T09:36:39;75.85;;;35.65;;
33268;SDS011;19640;50.944;5.260;2023-02-10T09:39:05;79.93;;;35.45;;
33268;SDS011;19640;50.944;5.260;2023-02-10T09:46:39;80.75;;;36.67;;
33268;SDS011;19640;50.944;5.260;2023-02-10T09:57:41;79.63;;;37.20;;
33268;SDS011;19640;50.944;5.260;2023-02-10T10:00:20;79.85;;;37.67;;
33268;SDS011;19640;50.944;5.260;2023-02-10T10:02:56;79.10;;;38.50;;
33268;SDS011;19640;50.944;5.260;2023-02-10T10:08:13;82.78;;;37.85;;
33268;SDS011;19640;50.944;5.260;2023-02-10T10:10:49;91.28;;;38.17;;
33268;SDS011;19640;50.944;5.260;2023-02-10T10:13:23;88.05;;;37.67;;
33268;SDS011;19640;50.944;5.260;2023-02-10T10:16:01;83.80;;;37.20;;
33268;SDS011;19640;50.944;5.260;2023-02-10T10:18:47;79.65;;;37.42;;
33268;SDS011;19640;50.944;5.260;2023-02-10T10:27:07;78.80;;;36.72;;
33268;SDS011;19640;50.944;5.260;2023-02-10T10:29:55;68.65;;;33.33;;
33268;SDS011;19640;50.944;5.260;2023-02-10T10:32:43;74.97;;;34.53;;
33268;SDS011;19640;50.944;5.260;2023-02-10T10:35:17;69.35;;;34.63;;
33268;SDS011;19640;50.944;5.260;2023-02-10T10:37:48;83.40;;;36.63;;
33268;SDS011;19640;50.944;5.260;2023-02-10T10:40:15;76.38;;;35.75;;
33268;SDS011;19640;50.944;5.260;2023-02-10T10:42:45;67.60;;;33.65;;
33268;SDS011;19640;50.944;5.260;2023-02-10T10:45:21;69.78;;;33.55;;
33268;SDS011;19640;50.944;5.260;2023-02-10T10:50:41;79.38;;;35.00;;
33268;SDS011;19640;50.944;5.260;2023-02-10T10:53:14;70.55;;;34.22;;
33268;SDS011;19640;50.944;5.260;2023-02-10T10:55:43;72.85;;;33.95;;
33268;SDS011;19640;50.944;5.260;2023-02-10T10:58:24;77.05;;;33.15;;
33268;SDS011;19640;50.944;5.260;2023-02-10T11:03:25;71.47;;;32.28;;
33268;SDS011;19640;50.944;5.260;2023-02-10T11:08:25;66.55;;;32.70;;
33268;SDS011;19640;50.944;5.260;2023-02-10T11:10:54;72.03;;;32.67;;
33268;SDS011;19640;50.944;5.260;2023-02-10T11:13:23;60.53;;;30.20;;
33268;SDS011;19640;50.944;5.260;2023-02-10T11:16:01;74.53;;;33.28;;
33268;SDS011;19640;50.944;5.260;2023-02-10T11:18:35;65.40;;;31.60;;
33268;SDS011;19640;50.944;5.260;2023-02-10T11:21:03;66.70;;;32.22;;
33268;SDS011;19640;50.944;5.260;2023-02-10T11:23:30;63.67;;;32.58;;
33268;SDS011;19640;50.944;5.260;2023-02-10T11:26:01;68.03;;;31.67;;
33268;SDS011;19640;50.944;5.260;2023-02-10T11:28:30;63.33;;;29.85;;
33268;SDS011;19640;50.944;5.260;2023-02-10T11:31:01;65.13;;;30.85;;
33268;SDS011;19640;50.944;5.260;2023-02-10T11:33:40;65.03;;;30.25;;
33268;SDS011;19640;50.944;5.260;2023-02-10T11:36:07;72.28;;;31.33;;
33268;SDS011;19640;50.944;5.260;2023-02-10T11:38:44;58.25;;;29.55;;
33268;SDS011;19640;50.944;5.260;2023-02-10T11:41:09;63.38;;;30.35;;
33268;SDS011;19640;50.944;5.260;2023-02-10T11:43:37;59.58;;;29.55;;
33268;SDS011;19640;50.944;5.260;2023-02-10T11:46:07;62.15;;;30.05;;
33268;SDS011;19640;50.944;5.260;2023-02-10T11:48:51;60.85;;;29.33;;
33268;SDS011;19640;50.944;5.260;2023-02-10T11:51:39;58.47;;;29.08;;
33268;SDS011;19640;50.944;5.260;2023-02-10T11:54:20;55.97;;;27.10;;
33268;SDS011;19640;50.944;5.260;2023-02-10T12:05:28;53.25;;;26.83;;
33268;SDS011;19640;50.944;5.260;2023-02-10T12:10:47;43.60;;;25.85;;
33268;SDS011;19640;50.944;5.260;2023-02-10T12:13:37;50.38;;;25.52;;
33268;SDS011;19640;50.944;5.260;2023-02-10T12:18:53;51.85;;;24.73;;
33268;SDS011;19640;50.944;5.260;2023-02-10T12:27:47;41.85;;;23.15;;
33268;SDS011;19640;50.944;5.260;2023-02-10T12:30:22;41.08;;;21.95;;
33268;SDS011;19640;50.944;5.260;2023-02-10T12:38:39;39.97;;;20.70;;
33268;SDS011;19640;50.944;5.260;2023-02-10T12:41:23;34.60;;;18.73;;
33268;SDS011;19640;50.944;5.260;2023-02-10T12:52:45;39.03;;;19.52;;
33268;SDS011;19640;50.944;5.260;2023-02-10T12:55:21;39.13;;;20.75;;
33268;SDS011;19640;50.944;5.260;2023-02-10T12:58:08;41.55;;;22.60;;
33268;SDS011;19640;50.944;5.260;2023-02-10T13:01:05;41.40;;;21.35;;
33268;SDS011;19640;50.944;5.260;2023-02-10T13:03:39;37.35;;;20.70;;
33268;SDS011;19640;50.944;5.260;2023-02-10T13:08:55;40.28;;;20.58;;
33268;SDS011;19640;50.944;5.260;2023-02-10T13:11:40;40.90;;;20.77;;
33268;SDS011;19640;50.944;5.260;2023-02-10T13:14:18;52.78;;;22.65;;
33268;SDS011;19640;50.944;5.260;2023-02-10T13:16:50;44.35;;;22.95;;
33268;SDS011;19640;50.944;5.260;2023-02-10T13:22:50;48.63;;;23.15;;
33268;SDS011;19640;50.944;5.260;2023-02-10T13:25:38;48.80;;;22.40;;
33268;SDS011;19640;50.944;5.260;2023-02-10T13:34:19;50.47;;;22.63;;
33268;SDS011;19640;50.944;5.260;2023-02-10T13:39:37;48.47;;;24.90;;
33268;SDS011;19640;50.944;5.260;2023-02-10T13:42:51;50.60;;;23.45;;
33268;SDS011;19640;50.944;5.260;2023-02-10T13:49:58;51.40;;;25.25;;
33268;SDS011;19640;50.944;5.260;2023-02-10T13:52:55;52.07;;;23.67;;
33268;SDS011;19640;50.944;5.260;2023-02-10T14:00:48;54.50;;;28.00;;
33268;SDS011;19640;50.944;5.260;2023-02-10T14:08:40;59.40;;;25.77;;
33268;SDS011;19640;50.944;5.260;2023-02-10T14:13:40;57.95;;;26.58;;
33268;SDS011;19640;50.944;5.260;2023-02-10T14:21:10;40.08;;;21.77;;
33268;SDS011;19640;50.944;5.260;2023-02-10T14:23:41;44.15;;;22.77;;
33268;SDS011;19640;50.944;5.260;2023-02-10T14:26:21;44.58;;;21.52;;
33268;SDS011;19640;50.944;5.260;2023-02-10T14:28:56;44.85;;;21.60;;
33268;SDS011;19640;50.944;5.260;2023-02-10T14:31:33;44.80;;;20.67;;
33268;SDS011;19640;50.944;5.260;2023-02-10T14:34:05;42.10;;;20.17;;
33268;SDS011;19640;50.944;5.260;2023-02-10T14:36:49;33.03;;;18.10;;
33268;SDS011;19640;50.944;5.260;2023-02-10T14:39:20;40.45;;;19.00;;
33268;SDS011;19640;50.944;5.260;2023-02-10T14:41:47;37.28;;;20.33;;
33268;SDS011;19640;50.944;5.260;2023-02-10T14:44:29;40.83;;;20.38;;
33268;SDS011;19640;50.944;5.260;2023-02-10T14:47:14;38.67;;;19.30;;
33268;SDS011;19640;50.944;5.260;2023-02-10T14:49:54;43.15;;;19.15;;
33268;SDS011;19640;50.944;5.260;2023-02-10T14:54:53;41.42;;;20.45;;
33268;SDS011;19640;50.944;5.260;2023-02-10T14:57:20;46.53;;;22.55;;
33268;SDS011;19640;50.944;5.260;2023-02-10T15:00:00;47.03;;;21.73;;
33268;SDS011;19640;50.944;5.260;2023-02-10T15:02:26;45.50;;;22.00;;
33268;SDS011;19640;50.944;5.260;2023-02-10T15:04:56;40.05;;;20.92;;
33268;SDS011;19640;50.944;5.260;2023-02-10T15:07:25;39.28;;;19.40;;
33268;SDS011;19640;50.944;5.260;2023-02-10T15:09:54;43.42;;;21.73;;
33268;SDS011;19640;50.944;5.260;2023-02-10T15:12:23;51.40;;;22.38;;
33268;SDS011;19640;50.944;5.260;2023-02-10T15:14:58;55.65;;;22.40;;
33268;SDS011;19640;50.944;5.260;2023-02-10T15:17:44;46.03;;;22.90;;
33268;SDS011;19640;50.944;5.260;2023-02-10T15:27:57;52.92;;;24.33;;
33268;SDS011;19640;50.944;5.260;2023-02-10T15:30:27;58.10;;;23.92;;
33268;SDS011;19640;50.944;5.260;2023-02-10T15:32:57;49.55;;;23.05;;
33268;SDS011;19640;50.944;5.260;2023-02-10T15:35:24;49.40;;;23.00;;
33268;SDS011;19640;50.944;5.260;2023-02-10T15:37:54;55.05;;;24.63;;
33268;SDS011;19640;50.944;5.260;2023-02-10T15:40:25;48.28;;;23.10;;
33268;SDS011;19640;50.944;5.260;2023-02-10T15:43:05;57.25;;;25.50;;
33268;SDS011;19640;50.944;5.260;2023-02-10T15:45:48;61.38;;;26.33;;
33268;SDS011;19640;50.944;5.260;2023-02-10T15:48:21;60.38;;;25.50;;
33268;SDS011;19640;50.944;5.260;2023-02-10T15:50:47;52.35;;;24.95;;
33268;SDS011;19640;50.944;5.260;2023-02-10T15:53:18;63.35;;;25.95;;
33268;SDS011;19640;50.944;5.260;2023-02-10T15:55:46;60.08;;;27.02;;
33268;SDS011;19640;50.944;5.260;2023-02-10T15:58:12;62.08;;;26.60;;
33268;SDS011;19640;50.944;5.260;2023-02-10T16:00:39;59.45;;;25.05;;
33268;SDS011;19640;50.944;5.260;2023-02-10T16:03:07;61.90;;;26.70;;
33268;SDS011;19640;50.944;5.260;2023-02-10T16:05:33;61.38;;;25.55;;
33268;SDS011;19640;50.944;5.260;2023-02-10T16:08:05;73.18;;;26.05;;
33268;SDS011;19640;50.944;5.260;2023-02-10T16:10:37;58.17;;;24.35;;
33268;SDS011;19640;50.944;5.260;2023-02-10T16:13:03;55.55;;;24.30;;
33268;SDS011;19640;50.944;5.260;2023-02-10T16:15:29;57.83;;;23.52;;
33268;SDS011;19640;50.944;5.260;2023-02-10T16:17:56;62.58;;;23.73;;
33268;SDS011;19640;50.944;5.260;2023-02-10T16:20:25;53.60;;;23.30;;
33268;SDS011;19640;50.944;5.260;2023-02-10T16:22:53;58.83;;;25.08;;
33268;SDS011;19640;50.944;5.260;2023-02-10T16:25:21;54.58;;;22.45;;
33268;SDS011;19640;50.944;5.260;2023-02-10T16:27:48;52.15;;;23.10;;
33268;SDS011;19640;50.944;5.260;2023-02-10T16:30:20;52.28;;;24.35;;
33268;SDS011;19640;50.944;5.260;2023-02-10T16:32:51;54.40;;;23.30;;
33268;SDS011;19640;50.944;5.260;2023-02-10T16:35:18;55.47;;;23.52;;
33268;SDS011;19640;50.944;5.260;2023-02-10T16:37:44;54.08;;;23.33;;
33268;SDS011;19640;50.944;5.260;2023-02-10T16:40:17;59.28;;;24.42;;
33268;SDS011;19640;50.944;5.260;2023-02-10T16:42:47;55.88;;;23.52;;